createdAt,value
2022-11-08T00:06:53.555Z,98790.11
2022-11-08T00:16:56.718Z,98796.52
2022-11-08T00:26:59.544Z,98797.61
2022-11-08T00:37:02.554Z,98796.89
2022-11-08T00:47:05.848Z,98798.52
2022-11-08T00:57:08.477Z,98796.30
2022-11-08T01:07:11.066Z,98798.23
2022-11-08T01:17:13.774Z,98794.61
2022-11-08T01:27:16.843Z,98784.42
2022-11-08T01:37:21.145Z,98782.52
2022-11-08T01:47:25.297Z,98782.48
2022-11-08T01:57:33.876Z,98781.45
2022-11-08T02:07:38.126Z,98777.41
2022-11-08T02:17:41.020Z,98774.20
2022-11-08T02:27:43.845Z,98775.11
2022-11-08T02:37:47.361Z,98773.47
2022-11-08T02:47:49.923Z,98776.83
2022-11-08T02:57:52.505Z,98772.69
2022-11-08T03:07:55.698Z,98775.59
2022-11-08T03:17:59.432Z,98774.45
2022-11-08T03:28:01.565Z,98784.91
2022-11-08T03:38:04.236Z,98780.66
2022-11-08T03:48:06.320Z,98785.52
2022-11-08T03:58:09.270Z,98786.63
2022-11-08T04:08:12.599Z,98782.45
2022-11-08T04:18:33.554Z,98774.36
2022-11-08T04:28:37.311Z,98768.63
2022-11-08T04:38:39.861Z,98759.91
2022-11-08T04:48:43.185Z,98756.48
2022-11-08T04:58:46.945Z,98758.17
2022-11-08T05:08:50.080Z,98757.31
2022-11-08T05:18:53.239Z,98759.52
2022-11-08T05:28:55.835Z,98767.65
2022-11-08T05:38:58.441Z,98775.83
2022-11-08T05:49:00.668Z,98777.67
2022-11-08T05:59:03.514Z,98782.20
2022-11-08T06:09:06.169Z,98791.83
2022-11-08T06:19:08.768Z,98795.80
2022-11-08T06:29:11.728Z,98797.98
2022-11-08T06:39:14.376Z,98793.38
2022-11-08T06:49:17.104Z,98794.66
2022-11-08T06:59:19.741Z,98798.20
2022-11-08T07:09:22.639Z,98798.80
2022-11-08T07:19:25.252Z,98798.80
2022-11-08T07:29:27.917Z,98793.42
2022-11-08T07:39:30.500Z,98796.79
2022-11-08T07:49:32.852Z,98799.27
2022-11-08T07:59:35.566Z,98804.83
2022-11-08T08:09:38.241Z,98800.34
2022-11-08T08:19:40.847Z,98799.36
2022-11-08T08:29:43.649Z,98795.95
2022-11-08T08:39:46.484Z,98794.56
2022-11-08T08:49:49.329Z,98791.94
2022-11-08T09:10:15.600Z,98786.00
2022-11-08T09:20:18.301Z,98784.73
2022-11-08T09:30:20.857Z,98786.31
2022-11-08T09:40:23.181Z,98779.20
2022-11-08T09:50:28.983Z,98779.26
2022-11-08T10:00:32.871Z,98775.63
2022-11-08T10:10:36.332Z,98772.84
2022-11-08T10:20:39.053Z,98765.92
2022-11-08T10:30:43.664Z,98760.83
2022-11-08T10:40:50.869Z,98759.04
2022-11-08T10:50:55.432Z,98758.28
2022-11-08T11:00:59.040Z,98755.90
2022-11-08T11:11:15.031Z,98746.32
2022-11-08T11:21:18.756Z,98737.08
2022-11-08T11:31:21.364Z,98734.52
2022-11-08T11:41:24.271Z,98729.30
2022-11-08T11:51:28.926Z,98723.29
2022-11-08T12:01:32.607Z,98715.36
2022-11-08T12:11:36.411Z,98707.77
2022-11-08T12:21:45.615Z,98697.18
2022-11-08T12:31:48.098Z,98688.90
2022-11-08T12:41:51.587Z,98681.91
2022-11-08T12:51:58.623Z,98676.88
2022-11-08T13:02:00.683Z,98679.02
2022-11-08T13:12:04.594Z,98675.87
2022-11-08T13:22:10.086Z,98668.34
2022-11-08T13:32:21.059Z,98661.64
2022-11-08T13:42:29.869Z,98656.83
2022-11-08T13:52:50.511Z,98658.08
2022-11-08T14:02:53.175Z,98652.09
2022-11-08T14:13:00.569Z,98644.25
2022-11-08T14:23:03.830Z,98641.80
2022-11-08T14:33:06.276Z,98650.10
2022-11-08T14:43:10.173Z,98652.67
2022-11-08T14:53:26.728Z,98646.66
2022-11-08T15:03:30.935Z,98645.44
2022-11-08T15:13:33.683Z,98638.05
2022-11-08T15:23:47.499Z,98638.75
2022-11-08T15:33:50.411Z,98630.14
2022-11-08T15:44:05.445Z,98627.77
2022-11-08T15:54:08.092Z,98615.73
2022-11-08T16:04:10.881Z,98610.45
2022-11-08T16:14:14.127Z,98619.58
2022-11-08T16:24:17.267Z,98622.82
2022-11-08T16:34:19.943Z,98627.02
2022-11-08T16:44:22.999Z,98625.27
2022-11-08T16:54:25.984Z,98633.38
2022-11-08T17:04:28.883Z,98647.30
2022-11-08T17:14:31.382Z,98654.98
2022-11-08T17:24:34.646Z,98651.02
2022-11-08T17:34:39.383Z,98646.21
2022-11-08T17:44:41.934Z,98646.02
2022-11-08T17:54:47.867Z,98640.11
2022-11-08T18:04:52.926Z,98647.05
2022-11-08T18:14:55.577Z,98654.63
2022-11-08T18:24:58.181Z,98655.79
2022-11-08T18:35:01.320Z,98648.32
2022-11-08T18:45:04.695Z,98645.02
2022-11-08T18:55:08.383Z,98648.27
2022-11-08T19:05:11.125Z,98646.68
2022-11-08T19:15:13.887Z,98644.17
2022-11-08T19:25:16.588Z,98645.44
2022-11-08T19:35:19.811Z,98638.25
2022-11-08T19:45:22.433Z,98641.16
2022-11-08T19:55:25.172Z,98636.98
2022-11-08T20:05:27.692Z,98637.40
2022-11-08T20:15:29.926Z,98637.55
2022-11-08T20:25:33.270Z,98633.70
2022-11-08T20:35:36.377Z,98636.96
2022-11-08T20:45:38.737Z,98632.84
2022-11-08T20:55:41.417Z,98619.52
2022-11-08T21:05:49.134Z,98616.27
2022-11-08T21:15:51.930Z,98613.92
2022-11-08T21:25:54.550Z,98607.43
2022-11-08T21:35:57.903Z,98616.33
2022-11-08T21:46:00.473Z,98610.64
2022-11-08T21:56:03.364Z,98612.80
2022-11-08T22:06:05.328Z,98619.87
2022-11-08T22:16:07.603Z,98621.05
2022-11-08T22:26:10.273Z,98627.46
2022-11-08T22:36:12.924Z,98619.08
2022-11-08T22:46:15.780Z,98619.07
2022-11-08T22:56:18.368Z,98619.71
2022-11-08T23:06:20.949Z,98617.96
2022-11-08T23:16:36.851Z,98612.14
2022-11-08T23:26:57.809Z,98613.90
2022-11-08T23:36:59.896Z,98615.00
2022-11-08T23:47:02.538Z,98612.93
2022-11-08T23:57:05.149Z,98611.38
